Time;durP1;ratioP1;P1;durP2;ratioP2;P2;SDS_P1;SDS_P2;PMS_P1;PMS_P2;Temp;Humidity;BMP_temperature;BMP_pressure;BME280_temperature;BME280_humidity;BME280_pressure;Samples;Min_cycle;Max_cycle;Signal;HPM_P1;HPM_P2
2023/09/29 00:01:18;;;;;;;12.13;2.97;;;;;;;15.92;96.21;101466.53;5081359;28;20346;-73
2023/09/29 00:03:44;;;;;;;14.20;3.65;;;;;;;15.92;96.42;101473.63;5075728;28;20043;-73
2023/09/29 00:06:11;;;;;;;8.15;2.42;;;;;;;15.93;96.43;101483.25;5079240;28;20366;-73
2023/09/29 00:08:36;;;;;;;9.60;2.95;;;;;;;15.93;96.63;101477.97;5075827;28;20289;-73
2023/09/29 00:11:02;;;;;;;8.15;2.53;;;;;;;15.93;96.67;101470.91;5077050;28;20036;-73
2023/09/29 00:13:27;;;;;;;8.95;2.70;;;;;;;15.95;96.54;101468.16;5076055;28;20454;-73
2023/09/29 00:15:52;;;;;;;7.28;2.53;;;;;;;15.95;96.65;101456.75;5076342;28;20040;-73
2023/09/29 00:18:18;;;;;;;13.55;3.35;;;;;;;15.96;96.69;101461.09;5076815;28;20056;-73
2023/09/29 00:20:43;;;;;;;7.88;2.30;;;;;;;15.97;96.49;101468.97;5076722;28;20024;-73
2023/09/29 00:23:09;;;;;;;3.50;1.88;;;;;;;15.98;96.57;101461.88;5075589;28;20060;-73
2023/09/29 00:25:34;;;;;;;13.52;3.55;;;;;;;15.98;96.31;101459.22;5079590;28;20039;-73
2023/09/29 00:28:00;;;;;;;7.05;2.60;;;;;;;15.97;95.97;101449.59;5082921;28;20235;-73
2023/09/29 00:30:26;;;;;;;4.93;2.20;;;;;;;15.99;96.10;101453.00;5076624;28;20036;-73
2023/09/29 00:32:53;;;;;;;6.07;2.65;;;;;;;16.00;96.01;101455.56;5065157;28;20024;-73
2023/09/29 00:35:24;;;;;;;4.47;2.25;;;;;;;16.01;96.06;101448.47;5075369;28;20051;-73
2023/09/29 00:37:51;;;;;;;7.60;2.22;;;;;;;16.01;96.12;101446.72;5070280;28;20303;-73
2023/09/29 00:40:16;;;;;;;3.80;2.03;;;;;;;16.02;96.05;101444.91;5074625;28;20034;-73
2023/09/29 00:42:43;;;;;;;3.65;2.05;;;;;;;16.03;96.07;101450.13;5075455;28;20096;-73
2023/09/29 00:45:10;;;;;;;5.25;2.17;;;;;;;16.04;95.94;101446.53;5076505;28;20044;-73
2023/09/29 00:47:36;;;;;;;9.43;2.17;;;;;;;16.06;96.14;101449.09;5079247;28;20040;-73
2023/09/29 00:50:05;;;;;;;5.55;2.45;;;;;;;16.04;95.73;101441.25;5085769;28;20055;-73
2023/09/29 00:52:31;;;;;;;4.47;2.28;;;;;;;16.04;95.59;101443.88;5075864;28;20044;-73
2023/09/29 00:54:56;;;;;;;6.10;2.40;;;;;;;16.06;95.81;101446.44;5075731;28;20044;-73
2023/09/29 00:57:21;;;;;;;4.57;2.00;;;;;;;16.06;95.81;101439.41;5075235;28;20278;-73
2023/09/29 00:59:48;;;;;;;5.68;2.28;;;;;;;16.07;95.67;101442.88;5075222;28;20363;-73
2023/09/29 01:02:14;;;;;;;5.63;2.45;;;;;;;16.07;95.64;101442.88;5081015;28;20054;-73
2023/09/29 01:04:39;;;;;;;4.03;2.10;;;;;;;16.07;95.43;101432.31;5077883;28;20036;-73
2023/09/29 01:07:06;;;;;;;4.82;2.13;;;;;;;16.06;95.48;101436.75;5093048;28;20086;-73
2023/09/29 01:09:31;;;;;;;6.45;2.38;;;;;;;16.05;95.42;101436.84;5086106;28;20047;-73
2023/09/29 01:11:59;;;;;;;5.07;2.08;;;;;;;16.05;95.43;101432.41;5085645;28;20044;-73
2023/09/29 01:14:25;;;;;;;5.32;2.33;;;;;;;16.04;95.46;101427.19;5087990;28;20043;-73
2023/09/29 01:16:51;;;;;;;5.93;2.50;;;;;;;16.03;95.54;101423.72;5082894;28;20306;-73
2023/09/29 01:19:18;;;;;;;7.70;2.50;;;;;;;16.02;95.84;101429.91;5089530;28;20215;-73
2023/09/29 01:21:46;;;;;;;6.13;2.47;;;;;;;16.02;95.57;101414.06;5075365;28;20036;-73
2023/09/29 01:24:12;;;;;;;;;;;;;;;16.01;95.73;101400.94;5077244;28;20104;-73
2023/09/29 01:26:38;;;;;;;6.45;2.42;;;;;;;16.00;95.52;101412.44;5074913;28;20149;-73
2023/09/29 01:29:03;;;;;;;5.38;2.25;;;;;;;16.00;95.50;101408.00;5085900;28;20134;-73
2023/09/29 01:31:29;;;;;;;7.80;2.45;;;;;;;15.99;95.68;101403.69;5078054;28;20035;-73
2023/09/29 01:33:55;;;;;;;6.05;3.05;;;;;;;16.01;95.74;101400.94;5082105;28;20036;-73
2023/09/29 01:36:20;;;;;;;7.18;2.53;;;;;;;16.01;96.00;101393.00;5074701;28;20387;-73
2023/09/29 01:38:46;;;;;;;3.15;2.00;;;;;;;16.01;95.88;101400.94;5074767;28;20047;-73
2023/09/29 01:41:13;;;;;;;2.90;1.92;;;;;;;16.02;96.01;101395.56;5075226;28;20515;-73
2023/09/29 01:43:39;;;;;;;4.43;2.10;;;;;;;16.03;96.13;101393.81;5091665;28;20099;-73
2023/09/29 01:46:04;;;;;;;5.15;2.05;;;;;;;16.04;96.25;101390.19;5075185;28;20044;-73
2023/09/29 01:48:30;;;;;;;6.20;2.47;;;;;;;16.06;95.94;101383.91;5093153;28;20046;-73
2023/09/29 01:50:55;;;;;;;5.00;2.40;;;;;;;16.08;96.12;101382.03;5090638;28;20404;-73
2023/09/29 01:53:21;;;;;;;5.13;2.00;;;;;;;16.08;96.12;101382.03;5095294;28;20032;-73
2023/09/29 01:55:46;;;;;;;4.18;1.98;;;;;;;16.10;96.13;101376.69;5079860;28;20339;-73
2023/09/29 01:58:12;;;;;;;4.55;2.13;;;;;;;16.10;96.17;101380.16;5091062;28;20074;-73
2023/09/29 02:00:38;;;;;;;3.90;1.98;;;;;;;16.11;96.21;101370.44;5073911;28;20305;-73
2023/09/29 02:03:06;;;;;;;7.50;2.47;;;;;;;16.10;96.42;101374.88;5080004;28;20040;-73
2023/09/29 02:05:32;;;;;;;4.93;2.75;;;;;;;16.11;96.38;101373.06;5074203;28;20064;-73
2023/09/29 02:08:06;;;;;;;4.05;2.20;;;;;;;16.12;96.60;101374.81;5074792;28;20125;-73
2023/09/29 02:10:31;;;;;;;3.72;2.20;;;;;;;16.12;96.43;101373.00;5074291;28;20032;-73
2023/09/29 02:12:59;;;;;;;4.38;2.30;;;;;;;16.14;96.74;101380.84;5074780;28;20104;-73
2023/09/29 02:15:26;;;;;;;5.30;2.22;;;;;;;16.15;96.51;101365.84;5075084;28;20239;-73
2023/09/29 02:17:52;;;;;;;6.38;2.58;;;;;;;16.15;96.39;101365.84;5082793;28;20087;-73
2023/09/29 02:20:20;;;;;;;3.63;2.30;;;;;;;16.16;96.38;101364.91;5083575;28;20105;-73
2023/09/29 02:22:48;;;;;;;4.10;2.50;;;;;;;16.17;96.27;101350.75;5078838;28;20463;-73
2023/09/29 02:25:15;;;;;;;5.97;2.85;;;;;;;16.16;96.35;101349.91;5083284;28;20087;-73
2023/09/29 02:27:42;;;;;;;5.63;2.30;;;;;;;16.18;96.05;101344.53;5078306;28;20028;-73
2023/09/29 02:30:10;;;;;;;7.25;2.50;;;;;;;16.18;96.34;101347.19;5085919;28;20040;-73
2023/09/29 02:32:37;;;;;;;4.78;2.17;;;;;;;16.18;96.30;101349.81;5077160;28;20123;-73
2023/09/29 02:35:02;;;;;;;3.80;2.17;;;;;;;16.19;96.46;101356.78;5087150;28;20053;-73
2023/09/29 02:37:28;;;;;;;4.30;2.17;;;;;;;16.20;96.17;101353.22;5077061;28;20212;-73
2023/09/29 02:39:55;;;;;;;9.00;2.53;;;;;;;16.20;96.52;101353.22;5092895;28;20095;-73
2023/09/29 02:42:20;;;;;;;10.38;3.08;;;;;;;16.18;97.08;101340.09;5093169;28;20028;-73
2023/09/29 02:44:45;;;;;;;7.90;2.67;;;;;;;16.20;97.71;101345.28;5093679;28;20057;-73
2023/09/29 02:47:11;;;;;;;7.18;2.53;;;;;;;16.20;98.21;101342.66;5095784;28;20447;-73
2023/09/29 02:49:42;;;;;;;9.82;2.90;;;;;;;16.19;98.43;101339.16;5094533;28;20043;-73
2023/09/29 02:52:08;;;;;;;10.68;2.70;;;;;;;16.20;99.89;101311.78;5079432;28;20043;-74
2023/09/29 02:54:33;;;;;;;8.68;2.53;;;;;;;16.20;100.00;101300.38;5077788;28;20232;-74
2023/09/29 02:56:59;;;;;;;10.30;3.15;;;;;;;16.21;100.00;101304.69;5078183;28;20024;-74
2023/09/29 02:59:25;;;;;;;8.80;2.75;;;;;;;16.19;100.00;101307.47;5078034;28;20047;-74
2023/09/29 03:01:50;;;;;;;9.93;2.60;;;;;;;16.21;100.00;101315.28;5077634;28;20040;-74
2023/09/29 03:04:16;;;;;;;5.65;2.28;;;;;;;16.19;100.00;101307.47;5091464;28;20032;-74
2023/09/29 03:06:41;;;;;;;6.72;2.80;;;;;;;16.18;100.00;101307.53;5077427;28;20052;-74
2023/09/29 03:09:10;;;;;;;7.82;2.92;;;;;;;16.17;100.00;101305.81;5093858;28;20043;-74
2023/09/29 03:11:39;;;;;;;4.90;2.40;;;;;;;16.17;100.00;101300.53;5078255;28;20104;-74
2023/09/29 03:14:06;;;;;;;3.25;2.10;;;;;;;16.15;100.00;101297.97;5090962;28;20106;-74
2023/09/29 03:16:32;;;;;;;4.07;2.50;;;;;;;16.15;100.00;101299.78;5079169;28;20036;-74
2023/09/29 03:18:57;;;;;;;9.35;2.80;;;;;;;16.13;100.00;101297.22;5087829;28;20137;-74
2023/09/29 03:21:22;;;;;;;5.75;2.60;;;;;;;16.12;100.00;101293.72;5081031;28;20409;-74
2023/09/29 03:23:48;;;;;;;7.03;2.70;;;;;;;16.11;100.00;101297.31;5077584;28;20063;-74
2023/09/29 03:26:17;;;;;;;8.30;2.85;;;;;;;16.10;100.00;101278.91;5077613;28;20358;-74
2023/09/29 03:28:43;;;;;;;4.43;2.65;;;;;;;16.10;100.00;101277.13;5077470;28;20103;-74
2023/09/29 03:31:09;;;;;;;6.85;3.25;;;;;;;16.10;100.00;101278.91;5077499;28;20208;-74
2023/09/29 03:33:35;;;;;;;3.75;2.25;;;;;;;16.10;100.00;101276.28;5076845;28;20046;-74
2023/09/29 03:36:01;;;;;;;9.57;2.60;;;;;;;16.10;100.00;101268.34;5077830;28;20051;-74
2023/09/29 03:38:27;;;;;;;3.42;2.13;;;;;;;16.11;100.00;101267.41;5094967;28;20358;-74
2023/09/29 03:40:52;;;;;;;5.97;2.22;;;;;;;16.11;100.00;101262.09;5096744;28;20028;-74
2023/09/29 03:43:18;;;;;;;7.72;2.70;;;;;;;16.11;100.00;101259.47;5097982;28;20044;-74
2023/09/29 03:45:46;;;;;;;5.05;2.40;;;;;;;16.11;100.00;101254.19;5087101;28;20410;-74
2023/09/29 03:48:12;;;;;;;5.23;2.70;;;;;;;16.10;100.00;101256.00;5077799;28;20064;-74
2023/09/29 03:50:39;;;;;;;6.25;2.53;;;;;;;16.10;100.00;101255.16;5088369;28;20044;-74
2023/09/29 03:53:05;;;;;;;3.33;2.28;;;;;;;16.09;100.00;101253.44;5077804;28;20099;-74
2023/09/29 03:55:31;;;;;;;3.53;2.30;;;;;;;16.11;100.00;101248.91;5076975;28;20028;-74
2023/09/29 03:57:56;;;;;;;7.28;2.25;;;;;;;16.10;100.00;101237.50;5077154;28;20036;-74
2023/09/29 04:00:21;;;;;;;5.93;2.22;;;;;;;16.12;100.00;101243.53;5077406;28;20036;-74
2023/09/29 04:02:50;;;;;;;7.60;2.42;;;;;;;16.13;100.00;101244.38;5076716;28;20037;-74
2023/09/29 04:05:17;;;;;;;3.85;2.28;;;;;;;16.14;100.00;101240.81;5086265;28;20316;-74
2023/09/29 04:07:43;;;;;;;4.90;2.08;;;;;;;16.17;100.00;101247.69;5094968;28;20343;-73
2023/09/29 04:10:10;;;;;;;4.80;2.00;;;;;;;16.17;100.00;101247.69;5093211;28;20043;-73
2023/09/29 04:12:37;;;;;;;2.70;2.00;;;;;;;16.18;100.00;101255.53;5076466;28;20036;-73
2023/09/29 04:15:03;;;;;;;2.20;1.90;;;;;;;16.17;100.00;101243.28;5086170;28;20107;-73
2023/09/29 04:17:28;;;;;;;2.42;1.85;;;;;;;16.19;100.00;101251.09;5076256;28;20047;-74
2023/09/29 04:19:55;;;;;;;5.38;2.40;;;;;;;16.21;100.00;101249.22;5077378;28;20032;-74
2023/09/29 04:22:24;;;;;;;4.45;2.42;;;;;;;16.21;100.00;101242.16;5076599;28;20032;-74
2023/09/29 04:24:49;;;;;;;;;;;;;;;16.21;100.00;101243.94;5076928;28;20099;-74
2023/09/29 04:27:14;;;;;;;5.17;2.30;;;;;;;16.21;100.00;101242.16;5076509;28;19924;-74
2023/09/29 04:29:40;;;;;;;4.43;2.30;;;;;;;16.22;100.00;101250.94;5074560;28;20302;-74
2023/09/29 04:32:06;;;;;;;7.30;2.60;;;;;;;16.24;100.00;101264.91;5076177;28;20024;-74
2023/09/29 04:34:31;;;;;;;3.45;1.90;;;;;;;16.25;100.00;101258.69;5076047;28;20044;-74
2023/09/29 04:36:57;;;;;;;2.33;2.00;;;;;;;16.25;100.00;101251.59;5076105;28;20050;-74
2023/09/29 04:39:22;;;;;;;4.10;2.25;;;;;;;16.26;100.00;101248.03;5094423;28;20035;-74
2023/09/29 04:41:48;;;;;;;3.72;2.05;;;;;;;16.28;100.00;101248.78;5090504;28;20365;-74
2023/09/29 04:44:13;;;;;;;3.45;2.13;;;;;;;16.28;100.00;101240.88;5079084;28;20044;-74
2023/09/29 04:46:41;;;;;;;3.97;2.10;;;;;;;16.30;100.00;101244.25;5075656;28;20036;-74
2023/09/29 04:49:07;;;;;;;2.90;2.13;;;;;;;16.31;100.00;101245.09;5076292;28;20044;-74
2023/09/29 04:51:33;;;;;;;3.28;2.05;;;;;;;16.31;100.00;101232.72;5075730;28;20036;-73
2023/09/29 04:53:59;;;;;;;7.00;2.47;;;;;;;16.31;100.00;101234.53;5076108;28;20051;-73
2023/09/29 04:56:24;;;;;;;1.98;1.75;;;;;;;16.32;100.00;101230.97;5076145;28;20063;-73
2023/09/29 04:58:50;;;;;;;2.92;2.00;;;;;;;16.34;100.00;101233.53;5075653;28;20035;-73
2023/09/29 05:01:19;;;;;;;2.58;1.90;;;;;;;16.34;100.00;101228.25;5075982;28;20378;-73
2023/09/29 05:03:47;;;;;;;5.20;2.22;;;;;;;16.34;100.00;101233.53;5075680;28;20067;-73
2023/09/29 05:06:13;;;;;;;7.20;2.50;;;;;;;16.35;100.00;101230.75;5075753;28;20158;-73
2023/09/29 05:08:39;;;;;;;5.38;2.58;;;;;;;16.35;100.00;101232.56;5075296;28;20328;-73
2023/09/29 05:11:05;;;;;;;6.57;2.42;;;;;;;16.37;100.00;101230.69;5090893;28;20306;-73
2023/09/29 05:13:32;;;;;;;3.85;2.15;;;;;;;16.37;100.00;101234.19;5075105;28;20119;-73
2023/09/29 05:15:58;;;;;;;4.47;2.10;;;;;;;16.40;100.00;101222.56;5082805;28;20035;-73
2023/09/29 05:18:24;;;;;;;3.10;2.10;;;;;;;16.40;100.00;101222.56;5075267;28;20032;-73
2023/09/29 05:20:50;;;;;;;2.92;1.50;;;;;;;16.41;100.00;101214.56;5078297;28;20036;-73
2023/09/29 05:23:15;;;;;;;3.65;2.15;;;;;;;16.44;100.00;101218.81;5085059;28;20036;-73
2023/09/29 05:25:47;;;;;;;8.50;2.63;;;;;;;16.44;100.00;101230.22;5074538;28;20044;-73
2023/09/29 05:28:13;;;;;;;2.30;1.80;;;;;;;16.45;100.00;101231.94;5074105;28;20070;-74
2023/09/29 05:30:43;;;;;;;3.72;2.50;;;;;;;16.48;100.00;101241.47;5068072;28;20047;-73
2023/09/29 05:33:08;;;;;;;4.40;1.92;;;;;;;16.50;100.00;101231.69;5071378;28;20041;-73
2023/09/29 05:35:34;;;;;;;3.20;2.00;;;;;;;16.52;100.00;101235.06;5078503;28;20113;-73
2023/09/29 05:38:00;;;;;;;10.18;2.08;;;;;;;16.53;100.00;101230.63;5077467;28;20040;-73
2023/09/29 05:40:25;;;;;;;3.60;2.17;;;;;;;16.54;100.00;101230.53;5084584;28;20331;-73
2023/09/29 05:42:51;;;;;;;7.00;2.65;;;;;;;16.57;100.00;101232.13;5080223;28;20130;-73
2023/09/29 05:45:16;;;;;;;5.50;2.30;;;;;;;16.58;100.00;101232.06;5085346;28;20392;-73
2023/09/29 05:47:42;;;;;;;4.63;2.10;;;;;;;16.62;100.00;101225.63;5073927;28;20370;-74
2023/09/29 05:50:07;;;;;;;4.18;2.08;;;;;;;16.63;100.00;101229.16;5076896;28;20064;-73
2023/09/29 05:52:33;;;;;;;4.18;1.90;;;;;;;16.64;100.00;101230.84;5076420;28;20327;-73
2023/09/29 05:54:58;;;;;;;5.07;2.10;;;;;;;16.65;100.00;101233.38;5076251;28;20552;-73
2023/09/29 05:57:24;;;;;;;3.30;2.05;;;;;;;16.66;100.00;101235.09;5074934;28;20618;-73
2023/09/29 05:59:51;;;;;;;6.40;2.80;;;;;;;16.66;100.00;101237.75;5089573;28;20039;-73
2023/09/29 06:02:16;;;;;;;4.32;1.95;;;;;;;16.68;100.00;101237.63;5080549;28;20133;-73
2023/09/29 06:04:42;;;;;;;4.28;2.38;;;;;;;16.69;100.00;101234.06;5093956;28;20028;-73
2023/09/29 06:07:07;;;;;;;6.35;2.25;;;;;;;16.70;100.00;101241.91;5080449;28;20120;-73
2023/09/29 06:09:33;;;;;;;6.03;2.70;;;;;;;16.74;100.00;101245.22;5071908;28;20244;-74
2023/09/29 06:11:58;;;;;;;4.43;1.98;;;;;;;16.77;100.00;101246.81;5076801;28;20440;-74
2023/09/29 06:14:23;;;;;;;4.80;2.33;;;;;;;16.78;100.00;101245.88;5090099;28;20332;-74
2023/09/29 06:16:49;;;;;;;4.18;2.22;;;;;;;16.80;100.00;101246.63;5074293;28;20315;-74
2023/09/29 06:19:15;;;;;;;3.15;2.15;;;;;;;16.83;100.00;101255.28;5075870;28;20111;-73
2023/09/29 06:21:40;;;;;;;6.45;2.60;;;;;;;16.85;100.00;101252.53;5087398;28;20028;-73
2023/09/29 06:24:06;;;;;;;2.30;2.10;;;;;;;16.86;100.00;101257.75;5073385;28;20109;-73
2023/09/29 06:26:31;;;;;;;5.13;2.95;;;;;;;16.87;100.00;101262.06;5084235;28;20040;-73
2023/09/29 06:28:57;;;;;;;4.18;2.20;;;;;;;16.90;100.00;101266.34;5072585;28;20036;-73
2023/09/29 06:31:22;;;;;;;4.50;2.50;;;;;;;16.93;100.00;101249.41;5073094;28;20388;-73
2023/09/29 06:33:48;;;;;;;5.53;2.65;;;;;;;16.97;100.00;101272.09;5072188;28;20079;-73
2023/09/29 06:36:13;;;;;;;6.18;2.70;;;;;;;16.99;100.00;101267.56;5073510;28;20042;-73
2023/09/29 06:38:39;;;;;;;4.63;2.88;;;;;;;17.00;100.00;101270.09;5072902;28;20191;-73
2023/09/29 06:41:04;;;;;;;4.03;2.70;;;;;;;17.02;100.00;101273.50;5073500;28;20059;-73
2023/09/29 06:43:29;;;;;;;10.98;2.83;;;;;;;17.02;100.00;101265.56;5073513;28;20024;-74
2023/09/29 06:45:55;;;;;;;4.57;2.80;;;;;;;17.04;100.00;101270.78;5073361;28;20036;-74
2023/09/29 06:48:20;;;;;;;3.20;2.63;;;;;;;17.04;100.00;101273.41;5073285;28;20032;-74
2023/09/29 06:50:45;;;;;;;5.40;2.80;;;;;;;17.04;100.00;101274.25;5079688;28;20134;-74
2023/09/29 06:53:11;;;;;;;5.85;2.22;;;;;;;17.07;100.00;101270.59;5079090;28;20044;-74
2023/09/29 06:55:36;;;;;;;3.95;2.72;;;;;;;17.08;100.00;101273.16;5074294;28;20063;-74
2023/09/29 06:58:04;;;;;;;4.07;2.38;;;;;;;17.09;100.00;101271.34;5077643;28;20545;-74
2023/09/29 07:00:30;;;;;;;7.85;2.70;;;;;;;17.08;100.00;101278.44;5063955;28;20509;-74
2023/09/29 07:02:55;;;;;;;3.22;2.47;;;;;;;17.07;100.00;101273.25;5073824;28;20059;-74
2023/09/29 07:05:20;;;;;;;3.45;2.03;;;;;;;17.09;100.00;101271.34;5073774;28;20047;-74
2023/09/29 07:07:46;;;;;;;3.28;2.40;;;;;;;17.11;100.00;101268.63;5073616;28;20300;-74
2023/09/29 07:10:11;;;;;;;6.35;2.30;;;;;;;17.12;100.00;101276.47;5074224;28;20046;-74
2023/09/29 07:12:37;;;;;;;2.53;2.22;;;;;;;17.14;100.00;101281.66;5073469;28;20032;-74
2023/09/29 07:15:03;;;;;;;7.70;2.80;;;;;;;17.16;100.00;101285.06;5074490;28;20044;-74
2023/09/29 07:17:28;;;;;;;7.70;3.10;;;;;;;17.16;100.00;101283.25;5073379;28;20047;-74
2023/09/29 07:19:54;;;;;;;4.22;2.72;;;;;;;17.18;100.00;101277.88;5074255;28;20024;-74
2023/09/29 07:22:19;;;;;;;4.97;2.80;;;;;;;17.20;100.00;101290.06;5074116;28;20029;-74
2023/09/29 07:24:46;;;;;;;2.95;2.50;;;;;;;17.21;100.00;101289.13;5073971;28;20037;-74
2023/09/29 07:27:12;;;;;;;5.15;2.85;;;;;;;17.23;100.00;101291.69;5074088;28;20077;-74
2023/09/29 07:29:37;;;;;;;4.00;2.90;;;;;;;17.24;100.00;101301.31;5073793;28;20040;-74
2023/09/29 07:32:03;;;;;;;3.55;2.20;;;;;;;17.26;100.00;101299.41;5069691;28;20039;-74
2023/09/29 07:34:30;;;;;;;2.60;2.22;;;;;;;17.28;100.00;101297.53;5076419;28;20032;-74
2023/09/29 07:36:56;;;;;;;3.10;2.35;;;;;;;17.30;100.00;101298.31;5077728;28;20036;-74
2023/09/29 07:39:21;;;;;;;3.25;2.42;;;;;;;17.30;100.00;101292.13;5077526;28;20117;-74
2023/09/29 07:41:47;;;;;;;4.90;2.60;;;;;;;17.32;100.00;101295.53;5076993;28;20036;-74
2023/09/29 07:44:13;;;;;;;5.68;3.25;;;;;;;17.34;100.00;101294.50;5077567;28;20320;-74
2023/09/29 07:46:39;;;;;;;5.25;2.70;;;;;;;17.36;100.00;101297.91;5071553;28;20028;-74
2023/09/29 07:49:05;;;;;;;4.45;2.60;;;;;;;17.39;100.00;101289.78;5071870;28;20358;-74
2023/09/29 07:51:32;;;;;;;4.85;3.15;;;;;;;17.43;100.00;101290.44;5075796;28;20074;-74
2023/09/29 07:53:57;;;;;;;4.22;3.00;;;;;;;17.44;100.00;101292.13;5070688;28;20272;-74
2023/09/29 07:56:23;;;;;;;5.57;3.20;;;;;;;17.48;100.00;101296.28;5070506;28;20389;-74
2023/09/29 07:58:50;;;;;;;5.45;2.70;;;;;;;17.53;100.00;101302.16;5075415;28;20298;-74
2023/09/29 08:01:15;;;;;;;3.20;2.60;;;;;;;17.55;100.00;101304.72;5074529;28;20037;-74
2023/09/29 08:03:42;;;;;;;5.50;2.88;;;;;;;17.57;100.00;101308.09;5075198;28;20039;-74
2023/09/29 08:06:08;;;;;;;3.15;2.40;;;;;;;17.58;100.00;101304.53;5069754;28;20041;-74
2023/09/29 08:08:34;;;;;;;4.95;2.80;;;;;;;17.61;100.00;101301.69;5076165;28;20036;-74
2023/09/29 08:11:00;;;;;;;8.27;2.80;;;;;;;17.65;100.00;101305.84;5070793;28;20240;-74
2023/09/29 08:13:25;;;;;;;3.88;2.80;;;;;;;17.69;100.00;101315.28;5077402;28;20317;-74
2023/09/29 08:15:51;;;;;;;4.30;2.58;;;;;;;17.74;100.00;101320.31;5075344;28;20040;-74
2023/09/29 08:18:17;;;;;;;8.25;3.03;;;;;;;17.78;100.00;101322.66;5076275;28;20074;-74
2023/09/29 08:20:43;;;;;;;4.10;2.67;;;;;;;17.82;100.00;101324.16;5075611;28;20036;-73
2023/09/29 08:23:08;;;;;;;4.13;2.53;;;;;;;17.87;100.00;101323.06;5092036;28;20314;-74
2023/09/29 08:25:34;;;;;;;3.80;2.53;;;;;;;17.90;100.00;101331.66;5083507;28;20040;-74
2023/09/29 08:28:02;;;;;;;6.05;2.63;;;;;;;17.94;100.00;101337.63;5074736;28;20111;-73
2023/09/29 08:30:28;;;;;;;5.18;2.38;;;;;;;17.98;100.00;101333.81;5075374;28;20040;-73
2023/09/29 08:32:53;;;;;;;4.50;2.60;;;;;;;17.99;100.00;101339.03;5076815;28;20117;-74
2023/09/29 08:35:19;;;;;;;6.13;2.53;;;;;;;18.03;100.00;101342.34;5076412;28;20028;-74
2023/09/29 08:37:45;;;;;;;4.25;2.70;;;;;;;18.09;100.00;101341.09;5075596;28;20032;-74
2023/09/29 08:40:14;;;;;;;5.40;2.83;;;;;;;18.13;100.00;101343.41;5072265;28;20095;-74
2023/09/29 08:42:50;;;;;;;2.72;2.10;;;;;;;18.16;100.00;101345.88;5073682;28;20050;-74
2023/09/29 08:45:17;;;;;;;2.03;1.90;;;;;;;18.16;100.00;101353.00;5074662;28;20350;-74
2023/09/29 08:47:48;;;;;;;3.92;2.50;;;;;;;18.15;100.00;101345.97;5075148;28;20271;-74
2023/09/29 08:50:16;;;;;;;4.60;2.97;;;;;;;18.17;100.00;101362.63;5074515;28;20036;-74
2023/09/29 08:52:46;;;;;;;3.25;2.47;;;;;;;18.16;100.00;101359.13;5072327;28;20363;-74
2023/09/29 08:55:12;;;;;;;3.30;2.38;;;;;;;18.15;100.00;101365.38;5069104;28;20048;-74
2023/09/29 08:57:38;;;;;;;5.78;2.75;;;;;;;18.16;100.00;101361.78;5072907;28;20074;-74
2023/09/29 09:00:05;;;;;;;5.80;3.20;;;;;;;18.14;100.00;101371.63;5074979;28;20055;-74
2023/09/29 09:02:31;;;;;;;4.13;3.22;;;;;;;18.16;100.00;101379.50;5073386;28;20028;-74
2023/09/29 09:04:57;;;;;;;3.67;2.67;;;;;;;18.15;100.00;101377.78;5075007;28;20402;-73
2023/09/29 09:07:23;;;;;;;5.10;3.22;;;;;;;18.13;100.00;101380.53;5075709;28;20060;-74
2023/09/29 09:09:52;;;;;;;4.88;2.58;;;;;;;18.13;100.00;101380.53;5078911;28;20028;-74
2023/09/29 09:12:17;;;;;;;6.22;2.70;;;;;;;18.14;100.00;101373.44;5087351;28;20048;-74
2023/09/29 09:14:44;;;;;;;4.55;3.20;;;;;;;18.15;100.00;101381.28;5087803;28;20111;-74
2023/09/29 09:17:10;;;;;;;6.63;3.90;;;;;;;18.15;100.00;101365.38;5081864;28;20305;-74
2023/09/29 09:19:50;;;;;;;4.20;3.67;;;;;;;18.17;100.00;101370.56;5079303;28;20331;-74
2023/09/29 09:22:16;;;;;;;4.03;3.55;;;;;;;18.18;100.00;101372.28;5074040;28;20025;-74
2023/09/29 09:24:42;;;;;;;7.32;4.38;;;;;;;18.20;100.00;101378.34;5076117;28;20275;-74
2023/09/29 09:27:08;;;;;;;4.80;4.28;;;;;;;18.20;100.00;101384.50;5075541;28;20043;-74
2023/09/29 09:29:44;;;;;;;5.80;4.55;;;;;;;18.21;100.00;101385.38;5074365;28;20293;-74
2023/09/29 09:32:10;;;;;;;4.30;4.00;;;;;;;18.20;100.00;101381.00;5074526;28;20056;-74
2023/09/29 09:34:37;;;;;;;4.70;4.22;;;;;;;18.20;100.00;101387.13;5073393;28;20036;-74
2023/09/29 09:37:03;;;;;;;3.95;3.63;;;;;;;18.21;100.00;101395.97;5077485;28;20127;-74
2023/09/29 09:39:29;;;;;;;4.85;4.40;;;;;;;18.22;100.00;101393.19;5079252;28;20383;-74
2023/09/29 09:41:57;;;;;;;5.10;4.60;;;;;;;18.22;100.00;101395.84;5075252;28;20012;-74
2023/09/29 09:44:24;;;;;;;7.30;5.03;;;;;;;18.22;100.00;101402.94;5078049;28;20040;-74
2023/09/29 09:47:00;;;;;;;5.78;4.82;;;;;;;18.23;100.00;101404.66;5082201;28;20016;-74
2023/09/29 09:49:36;;;;;;;7.38;4.70;;;;;;;18.24;100.00;101403.69;5089116;28;20039;-74
2023/09/29 09:52:07;;;;;;;4.90;4.30;;;;;;;18.25;100.00;101407.22;5077708;28;20040;-74
2023/09/29 09:54:40;;;;;;;6.70;4.53;;;;;;;18.26;100.00;101408.91;5075200;28;20032;-74
2023/09/29 09:57:10;;;;;;;5.03;4.25;;;;;;;18.29;100.00;101419.31;5074515;28;20040;-74
2023/09/29 09:59:36;;;;;;;5.47;4.88;;;;;;;18.28;100.00;101405.22;5081199;28;20276;-74
2023/09/29 10:02:07;;;;;;;5.35;4.85;;;;;;;18.29;100.00;101411.38;5072622;28;20218;-74
2023/09/29 10:04:38;;;;;;;6.93;4.10;;;;;;;18.29;100.00;101422.81;5078801;28;20058;-74
2023/09/29 10:07:04;;;;;;;3.72;3.42;;;;;;;18.30;100.00;101421.00;5073741;28;20056;-75
2023/09/29 10:09:44;;;;;;;4.20;3.70;;;;;;;18.29;100.00;101436.06;5074029;28;20028;-75
2023/09/29 10:12:22;;;;;;;4.28;3.10;;;;;;;18.26;100.00;101441.56;5083022;28;20051;-75
2023/09/29 10:14:47;;;;;;;2.97;2.47;;;;;;;18.27;100.00;101453.03;5081586;28;20354;-75
2023/09/29 10:17:13;;;;;;;3.10;2.75;;;;;;;18.28;100.00;101463.56;5077687;28;20301;-75
2023/09/29 10:19:39;;;;;;;2.20;2.00;;;;;;;18.30;100.00;101471.38;5074051;28;20243;-75
2023/09/29 10:22:06;;;;;;;4.70;1.77;;;;;;;18.27;100.00;101474.25;5077751;28;20089;-75
2023/09/29 10:24:31;;;;;;;2.88;1.65;;;;;;;18.22;100.00;101495.72;5080017;28;20039;-75
2023/09/29 10:27:05;;;;;;;3.38;1.42;;;;;;;18.15;100.00;101500.56;5076729;28;20347;-75
2023/09/29 10:29:37;;;;;;;3.30;1.35;;;;;;;18.12;100.00;101497.25;5073677;28;20028;-75
2023/09/29 10:32:15;;;;;;;4.50;1.42;;;;;;;18.08;100.00;101511.63;5082917;28;20032;-75
2023/09/29 10:34:41;;;;;;;4.15;1.27;;;;;;;18.08;100.00;101523.13;5058385;28;20129;-75
2023/09/29 10:37:09;;;;;;;5.60;1.50;;;;;;;18.00;100.00;101526.22;5082077;28;20053;-74
2023/09/29 10:39:35;;;;;;;6.63;1.75;;;;;;;18.01;100.00;101527.09;5083059;28;20223;-75
2023/09/29 10:42:12;;;;;;;3.67;1.23;;;;;;;18.02;100.00;101532.25;5080257;28;20331;-74
2023/09/29 10:44:56;;;;;;;8.02;1.60;;;;;;;17.97;100.00;101537.03;5073963;28;20032;-74
2023/09/29 10:47:35;;;;;;;4.35;1.20;;;;;;;18.03;100.00;101541.94;5066188;28;20104;-74
2023/09/29 10:50:03;;;;;;;;;;;;;;;18.04;100.00;101553.38;5072865;28;20070;-74
2023/09/29 10:52:30;;;;;;;4.20;1.20;;;;;;;18.01;100.00;101551.78;5071489;28;19927;-74
2023/09/29 10:54:58;;;;;;;7.63;1.52;;;;;;;18.01;100.00;101556.25;5072829;28;20323;-74
2023/09/29 10:57:25;;;;;;;;;;;;;;;17.99;100.00;101555.44;5074811;28;20036;-74
2023/09/29 10:59:52;;;;;;;8.95;1.50;;;;;;;17.94;100.00;101565.50;5073015;28;19983;-75
2023/09/29 11:02:17;;;;;;;8.75;1.75;;;;;;;17.81;100.00;101573.31;5073487;28;20098;-75
2023/09/29 11:04:46;;;;;;;4.88;1.48;;;;;;;17.88;100.00;101581.75;5072754;28;20323;-75
2023/09/29 11:07:15;;;;;;;4.22;1.88;;;;;;;17.74;100.00;101583.41;5072439;28;20060;-74
2023/09/29 11:09:41;;;;;;;;;;;;;;;17.64;100.00;101590.16;5076197;28;20251;-74
2023/09/29 11:12:06;;;;;;;3.28;1.50;;;;;;;17.63;100.00;101594.63;5076437;28;19979;-75
2023/09/29 11:14:38;;;;;;;5.20;1.48;;;;;;;17.73;100.00;101607.31;5076065;28;20094;-75
2023/09/29 11:17:04;;;;;;;4.95;1.63;;;;;;;17.69;100.00;101605.81;5077019;28;20119;-74